Time;durP1;ratioP1;P1;durP2;ratioP2;P2;SDS_P1;SDS_P2;PMS_P1;PMS_P2;Temp;Humidity;BMP_temperature;BMP_pressure;BME280_temperature;BME280_humidity;BME280_pressure;Samples;Min_cycle;Max_cycle;Signal;HPM_P1;HPM_P2
2022/10/13 00:00:51;;;;;;;20.35;10.18;;;;;;;9.09;100.00;101802.66;5051223;28;20049;-50
2022/10/13 00:03:20;;;;;;;17.70;10.10;;;;;;;9.08;100.00;101800.94;5055279;28;20052;-48
2022/10/13 00:05:49;;;;;;;18.98;10.50;;;;;;;9.11;100.00;101797.34;5057354;28;20045;-48
2022/10/13 00:08:20;;;;;;;19.42;9.95;;;;;;;9.09;100.00;101800.03;5056416;28;20052;-49
2022/10/13 00:10:50;;;;;;;17.67;9.35;;;;;;;9.12;100.00;101792.03;5056360;28;20102;-51
2022/10/13 00:13:20;;;;;;;16.20;9.60;;;;;;;9.17;100.00;101793.59;5056234;28;20057;-49
2022/10/13 00:15:48;;;;;;;15.68;9.88;;;;;;;9.20;100.00;101788.19;5058506;28;20047;-52
2022/10/13 00:18:18;;;;;;;18.75;9.82;;;;;;;9.18;100.00;101785.63;5058439;28;20041;-50
2022/10/13 00:20:49;;;;;;;18.33;9.75;;;;;;;9.23;100.00;101786.31;5056439;28;20118;-48
2022/10/13 00:23:18;;;;;;;20.35;10.13;;;;;;;9.22;100.00;101781.13;5055819;28;20049;-52
2022/10/13 00:25:52;;;;;;;18.88;10.75;;;;;;;9.22;100.00;101781.97;5056293;28;20079;-52
2022/10/13 00:28:20;;;;;;;16.67;10.57;;;;;;;9.22;100.00;101781.13;5055708;28;20102;-49
2022/10/13 00:30:48;;;;;;;16.05;9.85;;;;;;;9.22;100.00;101775.88;5055844;28;20045;-52
2022/10/13 00:33:16;;;;;;;17.63;10.30;;;;;;;9.24;100.00;101767.00;5054241;28;20053;-50
2022/10/13 00:35:48;;;;;;;17.33;10.65;;;;;;;9.24;100.00;101759.13;5058043;28;20103;-50
2022/10/13 00:38:18;;;;;;;17.92;9.88;;;;;;;9.26;100.00;101762.53;5055859;28;20051;-51
2022/10/13 00:40:48;;;;;;;17.83;11.02;;;;;;;9.25;100.00;101766.06;5057003;28;20040;-52
2022/10/13 00:43:21;;;;;;;18.88;9.63;;;;;;;9.26;100.00;101756.44;5058380;28;20128;-50
2022/10/13 00:45:50;;;;;;;20.35;11.02;;;;;;;9.32;100.00;101760.56;5058212;28;20049;-53
2022/10/13 00:48:22;;;;;;;18.83;10.18;;;;;;;9.36;100.00;101756.88;5058053;28;20048;-49
2022/10/13 00:50:51;;;;;;;16.90;9.93;;;;;;;9.38;100.00;101762.88;5057675;28;20095;-51
2022/10/13 00:53:23;;;;;;;15.93;9.90;;;;;;;9.38;100.00;101765.50;5055438;28;20043;-51
2022/10/13 00:55:53;;;;;;;15.87;9.77;;;;;;;9.37;100.00;101766.47;5057281;28;20449;-50
2022/10/13 00:58:25;;;;;;;17.63;9.70;;;;;;;9.40;100.00;101766.31;5056253;28;20056;-51
2022/10/13 01:00:53;;;;;;;19.25;11.15;;;;;;;9.43;100.00;101766.16;5055405;28;20057;-46
2022/10/13 01:03:22;;;;;;;17.42;10.25;;;;;;;9.47;100.00;101765.09;5056541;28;20056;-47
2022/10/13 01:05:52;;;;;;;17.25;10.35;;;;;;;9.47;100.00;101765.09;5058036;28;20083;-46
2022/10/13 01:08:21;;;;;;;17.95;10.68;;;;;;;9.43;100.00;101761.75;5057975;28;20045;-45
2022/10/13 01:11:00;;;;;;;18.08;11.05;;;;;;;9.53;100.00;101763.97;5056578;28;20051;-51
2022/10/13 01:13:37;;;;;;;19.60;10.85;;;;;;;9.51;100.00;101757.94;5051786;28;20045;-50
2022/10/13 01:16:13;;;;;;;20.60;10.50;;;;;;;9.47;100.00;101749.34;5051955;28;20060;-50
2022/10/13 01:18:48;;;;;;;18.75;10.38;;;;;;;9.54;100.00;101752.53;5054750;28;20129;-50
2022/10/13 01:21:23;;;;;;;16.98;10.80;;;;;;;9.59;100.00;101755.81;5054659;28;20084;-50
2022/10/13 01:24:40;;;;;;;18.52;10.80;;;;;;;9.56;100.00;101753.34;5052382;28;20087;-50
2022/10/13 01:27:45;;;;;;;17.55;9.27;;;;;;;9.58;100.00;101754.94;5052554;28;20045;-50
2022/10/13 01:30:18;;;;;;;17.00;10.85;;;;;;;9.62;100.00;101747.78;5052088;28;20454;-49
2022/10/13 01:33:11;;;;;;;20.23;9.80;;;;;;;9.67;100.00;101745.81;5050820;28;20045;-52
2022/10/13 01:35:49;;;;;;;19.92;10.93;;;;;;;9.67;100.00;101748.41;5054453;28;20036;-53
2022/10/13 01:38:26;;;;;;;18.52;9.95;;;;;;;9.66;100.00;101744.09;5052335;28;20538;-52
2022/10/13 01:41:02;;;;;;;21.30;10.55;;;;;;;9.67;100.00;101737.03;5052125;28;20484;-50
2022/10/13 01:43:37;;;;;;;17.90;10.65;;;;;;;9.70;100.00;101742.19;5050228;28;20057;-50
2022/10/13 01:46:12;;;;;;;17.60;10.98;;;;;;;9.73;100.00;101742.88;5051606;28;20458;-49
2022/10/13 01:48:43;;;;;;;19.05;10.65;;;;;;;9.79;100.00;101744.38;5050662;28;20081;-49
2022/10/13 01:51:16;;;;;;;19.05;11.32;;;;;;;9.78;100.00;101737.41;5051949;28;20060;-50
2022/10/13 01:53:45;;;;;;;;;;;;;;;9.83;100.00;101740.69;5052341;28;20057;-50
2022/10/13 01:56:13;;;;;;;17.95;10.60;;;;;;;9.82;100.00;101738.97;5051352;28;20019;-53
2022/10/13 01:58:42;;;;;;;17.98;10.32;;;;;;;9.83;100.00;101743.31;5051812;28;20080;-54
2022/10/13 02:01:36;;;;;;;19.33;11.05;;;;;;;9.81;100.00;101743.34;5053450;28;20112;-51
2022/10/13 02:04:17;;;;;;;18.40;10.45;;;;;;;9.88;100.00;101738.66;5053790;28;20049;-48
2022/10/13 02:06:50;;;;;;;18.70;10.63;;;;;;;9.87;100.00;101742.22;5052836;28;20144;-51
2022/10/13 02:09:25;;;;;;;20.30;11.10;;;;;;;9.94;100.00;101733.13;5051484;28;20504;-48
2022/10/13 02:11:58;;;;;;;18.25;10.75;;;;;;;9.94;100.00;101732.28;5051149;28;20499;-51
2022/10/13 02:14:29;;;;;;;18.83;10.98;;;;;;;9.95;100.00;101726.94;5051613;28;20045;-55
2022/10/13 02:17:03;;;;;;;18.80;10.95;;;;;;;9.99;100.00;101730.25;5053721;28;20500;-50
2022/10/13 02:19:34;;;;;;;18.73;10.88;;;;;;;9.97;100.00;101734.75;5050835;28;20647;-53
2022/10/13 02:22:03;;;;;;;17.55;10.80;;;;;;;10.02;100.00;101726.63;5051533;28;20155;-52
2022/10/13 02:24:32;;;;;;;18.65;10.43;;;;;;;9.98;100.00;101720.69;5050028;28;21051;-52
2022/10/13 02:27:00;;;;;;;19.23;11.20;;;;;;;10.02;100.00;101717.00;5052238;28;20084;-51
2022/10/13 02:29:28;;;;;;;18.05;10.80;;;;;;;10.05;100.00;101716.84;5052461;28;20523;-52
2022/10/13 02:31:56;;;;;;;18.02;11.05;;;;;;;10.03;100.00;101713.41;5050659;28;20128;-52
2022/10/13 02:34:26;;;;;;;19.42;10.68;;;;;;;10.02;100.00;101713.50;5051723;28;20048;-49
2022/10/13 02:36:54;;;;;;;17.08;10.30;;;;;;;10.09;100.00;101718.38;5051092;28;20040;-53
2022/10/13 02:39:22;;;;;;;22.48;12.30;;;;;;;10.07;100.00;101714.13;5050518;28;20532;-52
2022/10/13 02:41:50;;;;;;;17.10;11.02;;;;;;;10.04;100.00;101712.50;5051141;28;20503;-52
2022/10/13 02:44:18;;;;;;;19.58;10.75;;;;;;;10.09;100.00;101715.75;5050511;28;20076;-51
2022/10/13 02:46:46;;;;;;;15.65;10.57;;;;;;;10.14;100.00;101710.25;5050662;28;20242;-53
2022/10/13 02:49:14;;;;;;;22.17;11.35;;;;;;;10.10;100.00;101700.81;5050239;28;20127;-51
2022/10/13 02:51:44;;;;;;;19.60;10.60;;;;;;;10.18;100.00;101697.81;5052790;28;20044;-46
2022/10/13 02:54:12;;;;;;;19.02;10.70;;;;;;;10.14;100.00;101695.34;5052870;28;20442;-46
2022/10/13 02:56:40;;;;;;;19.02;11.48;;;;;;;10.14;100.00;101692.72;5053064;28;20032;-50
2022/10/13 02:59:08;;;;;;;18.98;10.73;;;;;;;10.15;100.00;101690.94;5052972;28;20049;-50
2022/10/13 03:01:40;;;;;;;18.58;10.88;;;;;;;10.12;100.00;101689.31;5052827;28;20127;-50
2022/10/13 03:04:08;;;;;;;19.17;11.65;;;;;;;10.10;100.00;101687.69;5052921;28;20056;-47
2022/10/13 03:06:37;;;;;;;17.42;10.10;;;;;;;10.11;100.00;101686.75;5052822;28;20059;-49
2022/10/13 03:09:06;;;;;;;18.60;10.65;;;;;;;10.11;100.00;101681.50;5052615;28;20060;-47
2022/10/13 03:11:34;;;;;;;18.13;10.68;;;;;;;10.07;100.00;101685.22;5052690;28;20069;-46
2022/10/13 03:14:02;;;;;;;17.20;10.90;;;;;;;10.08;100.00;101679.88;5052786;28;20526;-47
2022/10/13 03:16:30;;;;;;;16.05;10.10;;;;;;;10.08;100.00;101673.78;5052191;28;20045;-51
2022/10/13 03:18:59;;;;;;;15.40;10.20;;;;;;;10.07;100.00;101666.81;5052556;28;20041;-49
2022/10/13 03:21:27;;;;;;;18.58;10.73;;;;;;;10.08;100.00;101664.09;5052344;28;20088;-50
2022/10/13 03:23:55;;;;;;;16.70;10.63;;;;;;;10.11;100.00;101665.75;5052395;28;20040;-48
2022/10/13 03:26:24;;;;;;;19.92;10.88;;;;;;;10.10;100.00;101661.41;5052124;28;20056;-51
2022/10/13 03:28:52;;;;;;;19.52;10.90;;;;;;;10.11;100.00;101660.47;5050182;28;20507;-50
2022/10/13 03:31:21;;;;;;;19.10;10.85;;;;;;;10.10;100.00;101664.03;5050267;28;20457;-49
2022/10/13 03:33:50;;;;;;;16.90;10.10;;;;;;;10.11;100.00;101658.69;5052221;28;20128;-48
2022/10/13 03:36:18;;;;;;;17.20;11.48;;;;;;;10.15;100.00;101654.13;5051756;28;20403;-49
2022/10/13 03:38:46;;;;;;;20.95;11.75;;;;;;;10.15;100.00;101641.00;5052164;28;20041;-47
2022/10/13 03:41:16;;;;;;;21.30;11.07;;;;;;;10.23;100.00;101643.25;5052362;28;20123;-47
2022/10/13 03:43:46;;;;;;;22.52;12.13;;;;;;;10.27;100.00;101647.41;5052394;28;20051;-45
2022/10/13 03:46:16;;;;;;;18.80;11.25;;;;;;;10.29;100.00;101633.28;5051374;28;20079;-50
2022/10/13 03:48:44;;;;;;;20.25;11.98;;;;;;;10.31;100.00;101634.03;5048621;28;20557;-46
2022/10/13 03:51:15;;;;;;;19.63;11.77;;;;;;;10.36;100.00;101633.84;5051225;28;20554;-50
2022/10/13 03:53:43;;;;;;;25.17;11.88;;;;;;;10.39;100.00;101646.81;5052170;28;20045;-50
2022/10/13 03:56:14;;;;;;;21.75;12.18;;;;;;;10.41;100.00;101636.22;5049507;28;20140;-51
2022/10/13 03:58:42;;;;;;;19.33;11.52;;;;;;;10.42;100.00;101644.03;5049468;28;20080;-51
2022/10/13 04:01:13;;;;;;;21.60;11.63;;;;;;;10.43;100.00;101639.59;5049283;28;20041;-49
2022/10/13 04:03:41;;;;;;;21.60;11.93;;;;;;;10.45;100.00;101637.75;5048662;28;20079;-53
2022/10/13 04:06:10;;;;;;;20.85;11.48;;;;;;;10.51;100.00;101632.16;5049520;28;20577;-49
2022/10/13 04:08:38;;;;;;;19.35;11.88;;;;;;;10.56;100.00;101638.03;5049509;28;20384;-47
2022/10/13 04:11:07;;;;;;;23.27;12.38;;;;;;;10.58;100.00;101644.09;5051227;28;20033;-47
2022/10/13 04:13:36;;;;;;;20.92;12.27;;;;;;;10.63;100.00;101644.69;5049715;28;20450;-48
2022/10/13 04:16:06;;;;;;;20.27;11.52;;;;;;;10.67;100.00;101641.91;5050675;28;20037;-52
2022/10/13 04:18:35;;;;;;;23.05;11.57;;;;;;;10.69;100.00;101629.50;5048464;28;20546;-46
2022/10/13 04:21:12;;;;;;;22.17;11.70;;;;;;;10.80;100.00;101629.78;5049366;28;20053;-50
2022/10/13 04:23:40;;;;;;;23.65;11.82;;;;;;;10.75;100.00;101629.19;5049987;28;20045;-56
2022/10/13 04:26:15;;;;;;;20.17;11.70;;;;;;;10.76;100.00;101630.91;5049516;28;20041;-49
2022/10/13 04:28:44;;;;;;;19.90;11.45;;;;;;;10.76;100.00;101625.63;5050635;28;20389;-52
2022/10/13 04:31:13;;;;;;;20.95;11.68;;;;;;;10.77;100.00;101622.03;5049757;28;20446;-54
2022/10/13 04:33:43;;;;;;;22.73;12.25;;;;;;;10.79;100.00;101610.50;5048082;28;20080;-52
2022/10/13 04:36:13;;;;;;;22.42;12.43;;;;;;;10.78;100.00;101602.69;5050354;28;20099;-52
2022/10/13 04:38:41;;;;;;;22.60;11.82;;;;;;;10.77;100.00;101611.53;5050707;28;20522;-53
2022/10/13 04:41:10;;;;;;;20.35;12.07;;;;;;;10.79;100.00;101604.41;5049074;28;20507;-48
2022/10/13 04:43:39;;;;;;;21.88;11.82;;;;;;;10.81;100.00;101605.16;5049802;28;20049;-52
2022/10/13 04:46:10;;;;;;;20.92;11.23;;;;;;;10.83;100.00;101603.31;5051285;28;20139;-52
2022/10/13 04:48:38;;;;;;;20.38;10.95;;;;;;;10.83;100.00;101601.50;5053706;28;20041;-52
2022/10/13 04:51:10;;;;;;;18.75;11.73;;;;;;;10.87;100.00;101606.63;5055358;28;20045;-51
2022/10/13 04:53:39;;;;;;;18.20;10.43;;;;;;;10.85;100.00;101603.22;5053777;28;20130;-53
2022/10/13 04:56:09;;;;;;;22.52;11.93;;;;;;;10.85;100.00;101606.69;5052797;28;20051;-52
2022/10/13 04:58:38;;;;;;;17.70;11.40;;;;;;;10.83;100.00;101616.47;5052220;28;20053;-49
2022/10/13 05:01:11;;;;;;;20.92;11.30;;;;;;;10.81;100.00;101611.28;5055075;28;20122;-52
2022/10/13 05:03:44;;;;;;;20.30;10.98;;;;;;;10.81;100.00;101613.06;5055150;28;20056;-54
2022/10/13 05:06:19;;;;;;;20.42;11.38;;;;;;;10.82;100.00;101604.22;5055054;28;20041;-50
2022/10/13 05:08:47;;;;;;;19.13;11.25;;;;;;;10.80;100.00;101595.59;5054988;28;20053;-49
2022/10/13 05:11:15;;;;;;;21.88;11.80;;;;;;;10.81;100.00;101606.03;5054966;28;20412;-53
2022/10/13 05:13:43;;;;;;;19.63;11.20;;;;;;;10.79;100.00;101605.25;5054904;28;20053;-54
2022/10/13 05:16:14;;;;;;;20.17;11.32;;;;;;;10.80;100.00;101585.91;5054863;28;20037;-52
2022/10/13 05:18:43;;;;;;;19.17;11.25;;;;;;;10.79;100.00;101581.56;5054917;28;20114;-53
2022/10/13 05:21:15;;;;;;;17.05;10.70;;;;;;;10.82;100.00;101578.78;5054647;28;20057;-54
2022/10/13 05:23:45;;;;;;;24.40;11.27;;;;;;;10.83;100.00;101584.88;5051313;28;20053;-48
2022/10/13 05:26:15;;;;;;;22.15;11.50;;;;;;;10.84;100.00;101594.50;5052417;28;20549;-52
2022/10/13 05:28:44;;;;;;;19.00;10.98;;;;;;;10.81;100.00;101608.66;5052344;28;20056;-50
2022/10/13 05:31:14;;;;;;;17.15;10.15;;;;;;;10.80;100.00;101620.09;5053691;28;20045;-48
2022/10/13 05:33:44;;;;;;;18.20;10.65;;;;;;;10.78;100.00;101619.34;5049876;28;20063;-51
2022/10/13 05:36:14;;;;;;;19.75;10.63;;;;;;;10.78;100.00;101619.34;5051844;28;20048;-49
2022/10/13 05:38:44;;;;;;;20.65;10.35;;;;;;;10.75;100.00;101616.88;5052458;28;20037;-50
2022/10/13 05:41:14;;;;;;;20.05;11.50;;;;;;;10.76;100.00;101610.69;5052310;28;20053;-52
2022/10/13 05:43:42;;;;;;;20.27;11.98;;;;;;;10.77;100.00;101615.03;5052142;28;20048;-52
2022/10/13 05:46:11;;;;;;;19.33;11.80;;;;;;;10.81;100.00;101618.31;5051671;28;20053;-53
2022/10/13 05:48:39;;;;;;;21.85;11.07;;;;;;;10.84;100.00;101626.06;5050361;28;20132;-52
2022/10/13 05:51:14;;;;;;;20.42;11.77;;;;;;;10.84;100.00;101618.19;5054157;28;20503;-49
2022/10/13 05:53:47;;;;;;;20.45;11.45;;;;;;;10.85;100.00;101604.06;5051663;28;20045;-53
2022/10/13 05:56:24;;;;;;;23.55;12.45;;;;;;;10.87;100.00;101607.47;5051451;28;20519;-47
2022/10/13 05:58:59;;;;;;;20.00;11.13;;;;;;;10.90;100.00;101602.03;5049892;28;20454;-48
2022/10/13 06:01:31;;;;;;;20.30;11.40;;;;;;;10.89;100.00;101605.59;5051248;28;20037;-48
2022/10/13 06:04:03;;;;;;;23.00;12.02;;;;;;;10.92;100.00;101604.56;5053886;28;20108;-48
2022/10/13 06:06:32;;;;;;;24.23;12.02;;;;;;;10.94;100.00;101606.19;5053979;28;20045;-52
2022/10/13 06:09:01;;;;;;;22.58;11.40;;;;;;;10.96;100.00;101612.25;5053779;28;20595;-51
2022/10/13 06:11:29;;;;;;;19.02;12.07;;;;;;;10.98;100.00;101613.00;5051426;28;20053;-49
2022/10/13 06:13:57;;;;;;;19.63;11.50;;;;;;;11.03;100.00;101614.53;5049994;28;20047;-53
2022/10/13 06:16:26;;;;;;;19.40;10.50;;;;;;;11.06;100.00;101609.13;5053629;28;20048;-49
2022/10/13 06:18:54;;;;;;;19.23;10.50;;;;;;;11.07;100.00;101600.25;5053503;28;20140;-46
2022/10/13 06:21:22;;;;;;;18.08;10.57;;;;;;;11.09;100.00;101587.88;5053517;28;20061;-52
2022/10/13 06:23:51;;;;;;;20.27;11.10;;;;;;;11.10;100.00;101581.69;5051725;28;20049;-50
2022/10/13 06:26:20;;;;;;;16.85;11.23;;;;;;;11.21;100.00;101597.72;5051172;28;20076;-51
2022/10/13 06:28:48;;;;;;;19.98;11.27;;;;;;;11.20;100.00;101588.13;5050032;28;20044;-47
2022/10/13 06:31:20;;;;;;;22.90;12.55;;;;;;;11.20;100.00;101596.00;5053718;28;20534;-47
2022/10/13 06:33:48;;;;;;;22.38;11.80;;;;;;;11.23;100.00;101582.66;5053604;28;20124;-52
2022/10/13 06:36:16;;;;;;;23.90;13.13;;;;;;;11.28;100.00;101590.34;5053478;28;20045;-52
2022/10/13 06:38:46;;;;;;;22.15;12.80;;;;;;;11.33;100.00;101589.13;5051993;28;20041;-51
2022/10/13 06:41:14;;;;;;;22.13;12.35;;;;;;;11.35;100.00;101591.69;5053375;28;20102;-45
2022/10/13 06:43:46;;;;;;;20.30;11.50;;;;;;;11.36;100.00;101598.66;5053217;28;20045;-47
2022/10/13 06:46:14;;;;;;;20.85;12.30;;;;;;;11.38;100.00;101595.91;5053145;28;20048;-48
2022/10/13 06:48:42;;;;;;;21.67;12.18;;;;;;;11.39;100.00;101587.94;5053002;28;20136;-52
2022/10/13 06:51:11;;;;;;;22.52;11.70;;;;;;;11.42;100.00;101587.75;5053032;28;20045;-47
2022/10/13 06:53:39;;;;;;;20.23;11.45;;;;;;;11.45;100.00;101586.72;5052905;28;20051;-46
2022/10/13 06:56:10;;;;;;;23.45;12.27;;;;;;;11.47;100.00;101587.50;5052886;28;20067;-51
2022/10/13 06:58:38;;;;;;;20.05;11.77;;;;;;;11.52;100.00;101582.81;5052671;28;20041;-49
2022/10/13 07:01:12;;;;;;;21.40;12.10;;;;;;;11.54;100.00;101582.75;5052908;28;20288;-48
2022/10/13 07:03:40;;;;;;;20.67;11.77;;;;;;;11.57;100.00;101585.19;5049122;28;20044;-45
2022/10/13 07:06:09;;;;;;;22.30;13.02;;;;;;;11.57;100.00;101590.44;5050890;28;20415;-46
2022/10/13 07:13:10;;;;;;;20.38;11.23;;;;;;;11.66;100.00;101584.66;5068171;22;20059;-48
2022/10/13 07:15:39;;;;;;;20.50;11.40;;;;;;;11.67;100.00;101583.72;5050176;28;20106;-48
2022/10/13 07:18:08;;;;;;;21.45;11.77;;;;;;;11.71;100.00;101584.38;5048310;28;20186;-47
2022/10/13 07:20:36;;;;;;;20.95;12.05;;;;;;;11.72;100.00;101581.66;5051086;28;20472;-53
2022/10/13 07:23:05;;;;;;;21.58;11.45;;;;;;;11.78;100.00;101583.06;5050579;28;20507;-51
2022/10/13 07:25:33;;;;;;;21.05;12.60;;;;;;;11.80;100.00;101582.06;5050579;28;20078;-48
2022/10/13 07:28:01;;;;;;;21.77;12.23;;;;;;;11.80;100.00;101587.31;5049795;28;20044;-48
2022/10/13 07:30:29;;;;;;;22.42;13.52;;;;;;;11.80;100.00;101582.06;5050390;28;20069;-46
2022/10/13 07:32:58;;;;;;;22.88;11.77;;;;;;;11.83;100.00;101574.00;5048559;28;20056;-47
2022/10/13 07:35:30;;;;;;;19.45;12.07;;;;;;;11.89;100.00;101577.19;5050501;28;20053;-50
2022/10/13 07:37:59;;;;;;;24.00;12.07;;;;;;;11.93;100.00;101583.97;5050233;28;20044;-53
2022/10/13 07:40:27;;;;;;;26.42;12.55;;;;;;;11.95;100.00;101590.03;5050534;28;20075;-53
2022/10/13 07:42:56;;;;;;;23.80;11.73;;;;;;;11.97;100.00;101590.78;5049598;28;20110;-52
2022/10/13 07:45:24;;;;;;;20.55;12.23;;;;;;;11.98;100.00;101590.72;5050544;28;20068;-49
2022/10/13 07:47:53;;;;;;;22.02;12.80;;;;;;;12.00;100.00;101596.72;5048227;28;20045;-50
2022/10/13 07:50:21;;;;;;;18.88;11.43;;;;;;;12.04;100.00;101593.91;5050587;28;20053;-51
2022/10/13 07:52:50;;;;;;;23.48;12.50;;;;;;;12.05;100.00;101588.53;5050652;28;20581;-51
2022/10/13 07:55:18;;;;;;;22.40;12.48;;;;;;;12.08;100.00;101587.50;5050379;28;20500;-51
2022/10/13 07:57:46;;;;;;;19.48;12.27;;;;;;;12.10;100.00;101589.13;5049543;28;20136;-55
2022/10/13 08:00:15;;;;;;;21.30;12.73;;;;;;;12.14;100.00;101585.34;5050250;28;20423;-55
2022/10/13 08:02:43;;;;;;;21.65;12.82;;;;;;;12.16;100.00;101585.25;5048269;28;20057;-52
2022/10/13 08:05:11;;;;;;;20.27;12.65;;;;;;;12.18;100.00;101589.50;5050146;28;20049;-52
2022/10/13 08:07:39;;;;;;;22.17;13.25;;;;;;;12.24;100.00;101580.38;5050196;28;20897;-50
2022/10/13 08:10:09;;;;;;;25.70;12.85;;;;;;;12.29;100.00;101582.75;5049776;28;20057;-55
2022/10/13 08:12:37;;;;;;;25.40;12.98;;;;;;;12.38;100.00;101583.97;5049838;28;20061;-54
2022/10/13 08:15:07;;;;;;;20.05;12.63;;;;;;;12.40;100.00;101579.47;5049710;28;20064;-54
2022/10/13 08:17:35;;;;;;;24.45;12.68;;;;;;;12.42;100.00;101580.19;5048005;28;20423;-54
2022/10/13 08:20:05;;;;;;;22.10;13.50;;;;;;;12.47;100.00;101570.22;5050198;28;20072;-54
2022/10/13 08:22:34;;;;;;;22.52;13.75;;;;;;;12.52;100.00;101581.34;5052093;28;20053;-53
2022/10/13 08:25:02;;;;;;;21.92;13.13;;;;;;;12.52;100.00;101589.25;5053833;28;20545;-53
2022/10/13 08:27:31;;;;;;;24.05;12.65;;;;;;;12.55;100.00;101582.94;5053554;28;20049;-52
2022/10/13 08:30:17;;;;;;;27.73;13.23;;;;;;;12.62;100.00;101571.91;5054295;28;20044;-53
2022/10/13 08:32:46;;;;;;;25.90;13.10;;;;;;;12.74;100.00;101572.94;5052179;28;20051;-54
2022/10/13 08:35:14;;;;;;;23.17;12.98;;;;;;;12.76;100.00;101564.91;5053758;28;20052;-54
2022/10/13 08:37:43;;;;;;;22.25;13.50;;;;;;;12.80;100.00;101580.47;5054045;28;20174;-53
2022/10/13 08:40:15;;;;;;;24.38;12.88;;;;;;;12.88;100.00;101581.78;5053158;28;20448;-54
2022/10/13 08:42:45;;;;;;;21.73;14.23;;;;;;;12.96;100.00;101575.06;5053349;28;20446;-54
2022/10/13 08:45:21;;;;;;;25.13;13.88;;;;;;;13.00;100.00;101578.34;5053756;28;20045;-50
2022/10/13 08:48:13;;;;;;;23.42;13.07;;;;;;;13.10;100.00;101579.47;5051631;28;20079;-50
2022/10/13 08:50:44;;;;;;;22.23;13.55;;;;;;;13.15;100.00;101585.28;5053675;28;20107;-51
2022/10/13 08:53:18;;;;;;;20.67;12.52;;;;;;;13.21;100.00;101586.72;5053569;28;20068;-48
2022/10/13 08:55:50;;;;;;;24.38;13.60;;;;;;;13.27;100.00;101578.38;5053377;28;20361;-55
2022/10/13 08:58:23;;;;;;;22.20;12.63;;;;;;;13.24;100.00;101583.88;5053169;28;20048;-55
2022/10/13 09:01:00;;;;;;;20.13;11.95;;;;;;;13.30;100.00;101580.81;5035710;28;20111;-53
2022/10/13 09:03:29;;;;;;;22.88;11.95;;;;;;;13.35;100.00;101583.16;5051933;28;20056;-52
2022/10/13 09:06:10;;;;;;;18.55;12.35;;;;;;;13.42;100.00;101581.84;5053511;28;20047;-49
2022/10/13 09:08:43;;;;;;;23.45;12.27;;;;;;;13.51;100.00;101583.03;5053693;28;20052;-49
2022/10/13 09:11:12;;;;;;;21.65;12.73;;;;;;;13.67;100.00;101570.50;5052827;28;20052;-48
2022/10/13 09:13:42;;;;;;;18.70;12.60;;;;;;;13.84;100.00;101579.09;5052529;28;20080;-47
2022/10/13 09:16:10;;;;;;;21.48;11.75;;;;;;;14.04;100.00;101569.78;5034474;28;20083;-47
2022/10/13 09:18:39;;;;;;;23.77;13.05;;;;;;;14.24;100.00;101570.25;5051218;28;20164;-49
2022/10/13 09:21:21;;;;;;;22.83;12.68;;;;;;;14.35;100.00;101565.03;5052719;28;20060;-51
2022/10/13 09:23:50;;;;;;;21.33;12.00;;;;;;;14.54;100.00;101562.78;5053144;28;20162;-49
2022/10/13 09:26:22;;;;;;;21.42;11.48;;;;;;;14.70;100.00;101557.28;5053272;28;20403;-50
2022/10/13 09:28:52;;;;;;;19.80;12.00;;;;;;;14.80;100.00;101559.28;5053029;28;20102;-49
2022/10/13 09:31:25;;;;;;;17.60;11.15;;;;;;;14.91;100.00;101554.06;5052863;28;20470;-47
2022/10/13 09:33:58;;;;;;;19.08;10.63;;;;;;;14.99;100.00;101550.88;5032465;28;20053;-51
2022/10/13 09:36:27;;;;;;;23.40;10.43;;;;;;;15.11;100.00;101554.44;5052991;28;20446;-50
2022/10/13 09:39:12;;;;;;;20.48;11.20;;;;;;;15.19;100.00;101554.72;5052586;28;20037;-53
2022/10/13 09:41:42;;;;;;;21.00;11.27;;;;;;;15.13;100.00;101552.50;5035428;28;20083;-48
2022/10/13 09:44:14;;;;;;;18.42;10.43;;;;;;;15.04;100.00;101548.72;5051619;28;20048;-48
2022/10/13 09:46:50;;;;;;;20.30;11.15;;;;;;;15.03;100.00;101553.16;5052468;28;20049;-47
2022/10/13 09:49:30;;;;;;;18.13;10.50;;;;;;;15.14;100.00;101551.53;5051319;28;20045;-48
2022/10/13 09:52:02;;;;;;;17.15;10.50;;;;;;;15.20;100.00;101553.72;5052202;28;20512;-50
2022/10/13 09:54:43;;;;;;;19.23;10.10;;;;;;;15.37;100.00;101553.34;5051959;28;20511;-46
2022/10/13 09:57:18;;;;;;;21.00;10.57;;;;;;;15.28;100.00;101547.88;5052008;28;20863;-47
2022/10/13 09:59:50;;;;;;;18.88;10.75;;;;;;;15.40;100.00;101546.13;5052543;28;20049;-46
2022/10/13 10:02:30;;;;;;;17.30;10.27;;;;;;;15.48;100.00;101543.75;5050994;28;20128;-47
2022/10/13 10:05:05;;;;;;;20.95;10.50;;;;;;;15.65;100.00;101553.06;5051863;28;20573;-47
2022/10/13 10:07:33;;;;;;;21.30;10.32;;;;;;;15.65;100.00;101548.63;5052187;28;20103;-47
2022/10/13 10:10:08;;;;;;;19.55;10.40;;;;;;;15.69;100.00;101547.44;5051841;28;20067;-47
2022/10/13 10:12:40;;;;;;;22.53;11.87;;;;;;;15.77;100.00;101546.00;5052162;28;20051;-46
2022/10/13 10:15:20;;;;;;;17.50;10.45;;;;;;;15.88;100.00;101540.75;5052129;28;20052;-49
2022/10/13 10:17:54;;;;;;;21.88;11.43;;;;;;;15.97;100.00;101549.81;5050546;28;20041;-47
2022/10/13 10:20:42;;;;;;;17.30;10.27;;;;;;;15.93;100.00;101543.91;5052338;28;20472;-47
2022/10/13 10:23:14;;;;;;;19.85;10.23;;;;;;;15.88;100.00;101548.69;5051359;28;20048;-48
2022/10/13 10:25:47;;;;;;;17.17;10.35;;;;;;;15.94;100.00;101540.28;5051871;28;20049;-50
2022/10/13 10:28:36;;;;;;;16.38;10.20;;;;;;;15.95;100.00;101544.63;5033540;28;20056;-50
2022/10/13 10:31:19;;;;;;;16.65;9.20;;;;;;;15.94;100.00;101542.94;5051106;28;20064;-51
2022/10/13 10:33:58;;;;;;;17.02;9.80;;;;;;;15.93;100.00;101540.41;5032771;28;20459;-47
2022/10/13 10:36:34;;;;;;;18.25;10.45;;;;;;;15.95;100.00;101539.34;5051713;28;20053;-51
2022/10/13 10:39:14;;;;;;;17.95;10.43;;;;;;;15.82;100.00;101543.88;5051227;28;20053;-52
2022/10/13 10:41:48;;;;;;;16.85;10.23;;;;;;;15.82;100.00;101544.72;5051700;28;20045;-50
2022/10/13 10:44:21;;;;;;;17.27;10.82;;;;;;;15.93;100.00;101537.75;5051625;28;20123;-50
2022/10/13 10:46:54;;;;;;;18.95;11.48;;;;;;;15.94;100.00;101534.97;5050069;28;20095;-49
2022/10/13 10:49:27;;;;;;;20.10;10.95;;;;;;;15.89;100.00;101530.00;5050432;28;20048;-49
2022/10/13 10:51:55;;;;;;;;;;;;;;;15.82;100.00;101528.81;5051682;28;20048;-47
2022/10/13 10:54:36;;;;;;;19.65;10.60;;;;;;;15.91;100.00;101531.72;5051552;28;19921;-51
2022/10/13 10:57:12;;;;;;;23.73;12.23;;;;;;;15.89;100.00;101529.19;5033294;28;20052;-49
2022/10/13 10:59:49;;;;;;;19.73;10.52;;;;;;;15.87;100.00;101523.16;5051314;28;20098;-48
2022/10/13 11:02:41;;;;;;;20.73;11.07;;;;;;;15.90;100.00;101528.22;5049981;28;20095;-47
2022/10/13 11:05:10;;;;;;;19.58;10.32;;;;;;;15.84;100.00;101515.41;5051051;28;20057;-53
2022/10/13 11:07:58;;;;;;;17.48;11.05;;;;;;;15.67;100.00;101525.47;5051520;28;20047;-50
2022/10/13 11:10:28;;;;;;;18.80;10.90;;;;;;;15.66;100.00;101522.94;5050790;28;20041;-52
2022/10/13 11:13:21;;;;;;;21.35;11.25;;;;;;;15.56;100.00;101525.47;5050334;28;20072;-51
2022/10/13 11:15:49;;;;;;;20.45;11.00;;;;;;;15.47;100.00;101531.44;5050890;28;20033;-48
2022/10/13 11:19:04;;;;;;;18.48;11.38;;;;;;;15.38;100.00;101533.00;5049419;28;20045;-46
2022/10/13 11:22:21;;;;;;;20.35;11.20;;;;;;;15.30;100.00;101530.91;5007218;28;20373;-47
2022/10/13 11:24:58;;;;;;;20.08;11.27;;;;;;;15.34;100.00;101526.22;5051054;28;20063;-47
2022/10/13 11:27:44;;;;;;;21.38;12.32;;;;;;;15.33;100.00;101522.72;5050400;28;20079;-46
2022/10/13 11:30:49;;;;;;;20.70;12.23;;;;;;;15.16;100.00;101520.47;5050680;28;20551;-47